sensor_id;sensor_type;location;lat;lon;timestamp;pressure;altitude;pressure_sealevel;temperature
67829;BMP280;54626;45.436;10.942;2023-03-29T00:02:12;101463.34;;;7.45
67829;BMP280;54626;45.436;10.942;2023-03-29T00:04:38;101469.13;;;7.53
67829;BMP280;54626;45.436;10.942;2023-03-29T00:07:07;101456.41;;;7.55
67829;BMP280;54626;45.436;10.942;2023-03-29T00:09:34;101461.88;;;7.50
67829;BMP280;54626;45.436;10.942;2023-03-29T00:12:01;101459.06;;;7.44
67829;BMP280;54626;45.436;10.942;2023-03-29T00:14:28;101459.56;;;7.43
67829;BMP280;54626;45.436;10.942;2023-03-29T00:16:57;101452.88;;;7.49
67829;BMP280;54626;45.436;10.942;2023-03-29T00:19:24;101455.16;;;7.56
67829;BMP280;54626;45.436;10.942;2023-03-29T00:21:52;101451.44;;;7.59
67829;BMP280;54626;45.436;10.942;2023-03-29T00:24:19;101449.03;;;7.72
67829;BMP280;54626;45.436;10.942;2023-03-29T00:26:49;101446.34;;;7.83
67829;BMP280;54626;45.436;10.942;2023-03-29T00:29:15;101435.88;;;7.93
67829;BMP280;54626;45.436;10.942;2023-03-29T00:31:42;101431.88;;;7.99
67829;BMP280;54626;45.436;10.942;2023-03-29T00:34:11;101437.69;;;8.07
67829;BMP280;54626;45.436;10.942;2023-03-29T00:36:37;101439.19;;;8.08
67829;BMP280;54626;45.436;10.942;2023-03-29T00:39:08;101434.44;;;8.08
67829;BMP280;54626;45.436;10.942;2023-03-29T00:41:34;101437.44;;;8.05
67829;BMP280;54626;45.436;10.942;2023-03-29T00:44:03;101422.13;;;7.98
67829;BMP280;54626;45.436;10.942;2023-03-29T00:46:30;101418.13;;;7.94
67829;BMP280;54626;45.436;10.942;2023-03-29T00:49:08;101406.84;;;7.97
67829;BMP280;54626;45.436;10.942;2023-03-29T00:51:40;101393.84;;;8.03
67829;BMP280;54626;45.436;10.942;2023-03-29T00:54:09;101382.09;;;8.08
67829;BMP280;54626;45.436;10.942;2023-03-29T00:56:43;101380.84;;;8.09
67829;BMP280;54626;45.436;10.942;2023-03-29T00:59:15;101384.13;;;8.13
67829;BMP280;54626;45.436;10.942;2023-03-29T01:01:49;101386.56;;;8.00
67829;BMP280;54626;45.436;10.942;2023-03-29T01:04:29;101368.03;;;7.95
67829;BMP280;54626;45.436;10.942;2023-03-29T01:07:09;101353.50;;;7.89
67829;BMP280;54626;45.436;10.942;2023-03-29T01:09:40;101347.47;;;7.85
67829;BMP280;54626;45.436;10.942;2023-03-29T01:12:30;101338.16;;;7.77
67829;BMP280;54626;45.436;10.942;2023-03-29T01:15:03;101344.66;;;7.69
67829;BMP280;54626;45.436;10.942;2023-03-29T01:17:30;101351.63;;;7.64
67829;BMP280;54626;45.436;10.942;2023-03-29T01:20:08;101344.81;;;7.54
67829;BMP280;54626;45.436;10.942;2023-03-29T01:26:06;101333.31;;;7.56
67829;BMP280;54626;45.436;10.942;2023-03-29T01:28:50;101327.53;;;7.48
67829;BMP280;54626;45.436;10.942;2023-03-29T01:31:23;101333.47;;;7.41
67829;BMP280;54626;45.436;10.942;2023-03-29T01:33:59;101330.94;;;7.32
67829;BMP280;54626;45.436;10.942;2023-03-29T01:36:36;101347.09;;;7.20
67829;BMP280;54626;45.436;10.942;2023-03-29T01:39:05;101335.53;;;7.05
67829;BMP280;54626;45.436;10.942;2023-03-29T01:41:47;101351.25;;;7.04
67829;BMP280;54626;45.436;10.942;2023-03-29T01:45:12;101350.25;;;7.02
67829;BMP280;54626;45.436;10.942;2023-03-29T01:50:18;101363.44;;;6.98
67829;BMP280;54626;45.436;10.942;2023-03-29T01:53:06;101360.56;;;6.81
67829;BMP280;54626;45.436;10.942;2023-03-29T01:55:38;101362.47;;;6.70
67829;BMP280;54626;45.436;10.942;2023-03-29T01:58:11;101350.22;;;6.71
67829;BMP280;54626;45.436;10.942;2023-03-29T02:00:39;101341.97;;;6.71
67829;BMP280;54626;45.436;10.942;2023-03-29T02:03:08;101330.97;;;6.71
67829;BMP280;54626;45.436;10.942;2023-03-29T02:05:38;101340.41;;;6.64
67829;BMP280;54626;45.436;10.942;2023-03-29T02:08:08;101348.38;;;6.62
67829;BMP280;54626;45.436;10.942;2023-03-29T02:10:36;101344.19;;;6.67
67829;BMP280;54626;45.436;10.942;2023-03-29T02:13:04;101346.44;;;6.68
67829;BMP280;54626;45.436;10.942;2023-03-29T02:15:30;101344.13;;;6.61
67829;BMP280;54626;45.436;10.942;2023-03-29T02:17:57;101348.59;;;6.59
67829;BMP280;54626;45.436;10.942;2023-03-29T02:20:25;101354.56;;;6.57
67829;BMP280;54626;45.436;10.942;2023-03-29T02:25:19;101351.69;;;6.66
67829;BMP280;54626;45.436;10.942;2023-03-29T02:27:48;101360.97;;;6.69
67829;BMP280;54626;45.436;10.942;2023-03-29T02:30:16;101364.41;;;6.64
67829;BMP280;54626;45.436;10.942;2023-03-29T02:32:56;101357.22;;;6.72
67829;BMP280;54626;45.436;10.942;2023-03-29T02:35:36;101357.41;;;6.63
67829;BMP280;54626;45.436;10.942;2023-03-29T02:38:07;101339.66;;;6.64
67829;BMP280;54626;45.436;10.942;2023-03-29T02:40:37;101340.31;;;6.79
67829;BMP280;54626;45.436;10.942;2023-03-29T02:43:05;101338.63;;;6.87
67829;BMP280;54626;45.436;10.942;2023-03-29T02:45:34;101346.94;;;6.98
67829;BMP280;54626;45.436;10.942;2023-03-29T02:48:05;101339.72;;;7.00
67829;BMP280;54626;45.436;10.942;2023-03-29T02:50:37;101334.97;;;7.01
67829;BMP280;54626;45.436;10.942;2023-03-29T02:53:10;101340.25;;;7.04
67829;BMP280;54626;45.436;10.942;2023-03-29T02:55:38;101346.31;;;7.14
67829;BMP280;54626;45.436;10.942;2023-03-29T02:58:05;101344.63;;;7.22
67829;BMP280;54626;45.436;10.942;2023-03-29T03:00:36;101343.66;;;7.30
67829;BMP280;54626;45.436;10.942;2023-03-29T03:03:07;101345.97;;;7.37
67829;BMP280;54626;45.436;10.942;2023-03-29T03:05:34;101333.25;;;7.39
67829;BMP280;54626;45.436;10.942;2023-03-29T03:08:01;101343.00;;;7.40
67829;BMP280;54626;45.436;10.942;2023-03-29T03:10:28;101341.16;;;7.32
67829;BMP280;54626;45.436;10.942;2023-03-29T03:12:54;101350.59;;;7.20
67829;BMP280;54626;45.436;10.942;2023-03-29T03:15:23;101347.34;;;7.16
67829;BMP280;54626;45.436;10.942;2023-03-29T03:17:52;101355.03;;;7.12
67829;BMP280;54626;45.436;10.942;2023-03-29T03:20:19;101346.50;;;7.05
67829;BMP280;54626;45.436;10.942;2023-03-29T03:22:48;101328.50;;;7.04
67829;BMP280;54626;45.436;10.942;2023-03-29T03:25:16;101332.31;;;7.12
67829;BMP280;54626;45.436;10.942;2023-03-29T03:27:44;101337.63;;;7.21
67829;BMP280;54626;45.436;10.942;2023-03-29T03:30:11;101337.44;;;7.30
67829;BMP280;54626;45.436;10.942;2023-03-29T03:32:38;101336.69;;;7.34
67829;BMP280;54626;45.436;10.942;2023-03-29T03:35:05;101342.75;;;7.38
67829;BMP280;54626;45.436;10.942;2023-03-29T03:37:32;101340.00;;;7.38
67829;BMP280;54626;45.436;10.942;2023-03-29T03:39:59;101336.16;;;7.31
67829;BMP280;54626;45.436;10.942;2023-03-29T03:42:27;101341.44;;;7.29
67829;BMP280;54626;45.436;10.942;2023-03-29T03:44:54;101348.44;;;7.30
67829;BMP280;54626;45.436;10.942;2023-03-29T03:47:23;101342.22;;;7.34
67829;BMP280;54626;45.436;10.942;2023-03-29T03:49:50;101350.50;;;7.40
67829;BMP280;54626;45.436;10.942;2023-03-29T03:52:17;101356.34;;;7.17
67829;BMP280;54626;45.436;10.942;2023-03-29T03:54:44;101350.31;;;7.13
67829;BMP280;54626;45.436;10.942;2023-03-29T03:57:12;101344.28;;;7.09
67829;BMP280;54626;45.436;10.942;2023-03-29T03:59:39;101332.28;;;7.06
67829;BMP280;54626;45.436;10.942;2023-03-29T04:02:05;101341.03;;;7.05
67829;BMP280;54626;45.436;10.942;2023-03-29T04:04:32;101344.75;;;7.07
67829;BMP280;54626;45.436;10.942;2023-03-29T04:07:00;101345.81;;;7.15
67829;BMP280;54626;45.436;10.942;2023-03-29T04:09:30;101353.69;;;7.28
67829;BMP280;54626;45.436;10.942;2023-03-29T04:12:01;101344.47;;;7.36
67829;BMP280;54626;45.436;10.942;2023-03-29T04:14:28;101340.97;;;7.41
67829;BMP280;54626;45.436;10.942;2023-03-29T04:16:57;101357.25;;;7.39
67829;BMP280;54626;45.436;10.942;2023-03-29T04:19:23;101347.47;;;7.38
67829;BMP280;54626;45.436;10.942;2023-03-29T04:21:50;101354.03;;;7.46
67829;BMP280;54626;45.436;10.942;2023-03-29T04:24:16;101351.00;;;7.44
67829;BMP280;54626;45.436;10.942;2023-03-29T04:26:43;101344.75;;;7.43
67829;BMP280;54626;45.436;10.942;2023-03-29T04:29:12;101347.00;;;7.45
67829;BMP280;54626;45.436;10.942;2023-03-29T04:31:39;101350.25;;;7.43
67829;BMP280;54626;45.436;10.942;2023-03-29T04:34:05;101359.88;;;7.23
67829;BMP280;54626;45.436;10.942;2023-03-29T04:36:35;101356.59;;;7.19
67829;BMP280;54626;45.436;10.942;2023-03-29T04:39:02;101365.66;;;7.25
67829;BMP280;54626;45.436;10.942;2023-03-29T04:41:29;101367.88;;;7.21
67829;BMP280;54626;45.436;10.942;2023-03-29T04:44:00;101373.41;;;7.26
67829;BMP280;54626;45.436;10.942;2023-03-29T04:46:30;101369.50;;;7.38
67829;BMP280;54626;45.436;10.942;2023-03-29T04:48:58;101373.81;;;7.50
67829;BMP280;54626;45.436;10.942;2023-03-29T04:51:27;101370.81;;;7.53
67829;BMP280;54626;45.436;10.942;2023-03-29T04:53:56;101367.09;;;7.56
67829;BMP280;54626;45.436;10.942;2023-03-29T04:56:22;101372.56;;;7.51
67829;BMP280;54626;45.436;10.942;2023-03-29T04:58:49;101362.34;;;7.51
67829;BMP280;54626;45.436;10.942;2023-03-29T05:01:16;101364.09;;;7.54
67829;BMP280;54626;45.436;10.942;2023-03-29T05:03:42;101378.38;;;7.58
67829;BMP280;54626;45.436;10.942;2023-03-29T05:06:09;101375.56;;;7.53
67829;BMP280;54626;45.436;10.942;2023-03-29T05:08:38;101374.81;;;7.52
67829;BMP280;54626;45.436;10.942;2023-03-29T05:11:07;101372.31;;;7.49
67829;BMP280;54626;45.436;10.942;2023-03-29T05:13:34;101370.59;;;7.51
67829;BMP280;54626;45.436;10.942;2023-03-29T05:16:01;101368.34;;;7.55
67829;BMP280;54626;45.436;10.942;2023-03-29T05:18:28;101363.38;;;7.59
67829;BMP280;54626;45.436;10.942;2023-03-29T05:20:55;101356.81;;;7.51
67829;BMP280;54626;45.436;10.942;2023-03-29T05:23:23;101363.31;;;7.54
67829;BMP280;54626;45.436;10.942;2023-03-29T05:25:51;101373.00;;;7.44
67829;BMP280;54626;45.436;10.942;2023-03-29T05:28:19;101377.63;;;7.22
67829;BMP280;54626;45.436;10.942;2023-03-29T05:30:46;101368.88;;;7.23
67829;BMP280;54626;45.436;10.942;2023-03-29T05:33:12;101364.84;;;7.19
67829;BMP280;54626;45.436;10.942;2023-03-29T05:35:42;101361.53;;;7.09
67829;BMP280;54626;45.436;10.942;2023-03-29T05:38:09;101359.19;;;6.97
67829;BMP280;54626;45.436;10.942;2023-03-29T05:40:36;101368.16;;;6.97
67829;BMP280;54626;45.436;10.942;2023-03-29T05:43:02;101366.00;;;7.07
67829;BMP280;54626;45.436;10.942;2023-03-29T05:45:29;101363.00;;;7.05
67829;BMP280;54626;45.436;10.942;2023-03-29T05:47:57;101374.25;;;7.07
67829;BMP280;54626;45.436;10.942;2023-03-29T05:50:24;101375.34;;;7.15
67829;BMP280;54626;45.436;10.942;2023-03-29T05:52:50;101375.59;;;7.17
67829;BMP280;54626;45.436;10.942;2023-03-29T05:55:17;101378.56;;;7.13
67829;BMP280;54626;45.436;10.942;2023-03-29T05:57:43;101376.94;;;7.27
67829;BMP280;54626;45.436;10.942;2023-03-29T06:00:11;101385.00;;;7.41
67829;BMP280;54626;45.436;10.942;2023-03-29T06:02:50;101388.50;;;7.41
67829;BMP280;54626;45.436;10.942;2023-03-29T06:05:18;101389.59;;;7.49
67829;BMP280;54626;45.436;10.942;2023-03-29T06:07:45;101394.88;;;7.58
67829;BMP280;54626;45.436;10.942;2023-03-29T06:10:14;101397.63;;;7.64
67829;BMP280;54626;45.436;10.942;2023-03-29T06:12:41;101398.94;;;7.68
67829;BMP280;54626;45.436;10.942;2023-03-29T06:15:08;101395.50;;;7.79
67829;BMP280;54626;45.436;10.942;2023-03-29T06:17:35;101398.53;;;7.86
67829;BMP280;54626;45.436;10.942;2023-03-29T06:20:03;101398.56;;;7.97
67829;BMP280;54626;45.436;10.942;2023-03-29T06:22:40;101396.38;;;8.07
67829;BMP280;54626;45.436;10.942;2023-03-29T06:25:09;101388.38;;;8.14
67829;BMP280;54626;45.436;10.942;2023-03-29T06:27:36;101392.66;;;8.26
67829;BMP280;54626;45.436;10.942;2023-03-29T06:30:03;101387.47;;;8.33
67829;BMP280;54626;45.436;10.942;2023-03-29T06:32:41;101379.44;;;8.46
67829;BMP280;54626;45.436;10.942;2023-03-29T06:35:08;101392.25;;;8.60
67829;BMP280;54626;45.436;10.942;2023-03-29T06:37:36;101395.53;;;8.75
67829;BMP280;54626;45.436;10.942;2023-03-29T06:40:06;101398.06;;;8.84
67829;BMP280;54626;45.436;10.942;2023-03-29T06:42:34;101399.28;;;9.00
67829;BMP280;54626;45.436;10.942;2023-03-29T06:45:01;101411.06;;;9.05
67829;BMP280;54626;45.436;10.942;2023-03-29T06:47:29;101422.63;;;9.26
67829;BMP280;54626;45.436;10.942;2023-03-29T06:49:56;101407.56;;;9.38
67829;BMP280;54626;45.436;10.942;2023-03-29T06:52:23;101408.53;;;9.46
67829;BMP280;54626;45.436;10.942;2023-03-29T06:54:50;101414.25;;;9.64
67829;BMP280;54626;45.436;10.942;2023-03-29T06:57:17;101424.50;;;9.75
67829;BMP280;54626;45.436;10.942;2023-03-29T06:59:43;101424.97;;;9.89
67829;BMP280;54626;45.436;10.942;2023-03-29T07:02:10;101418.84;;;10.07
67829;BMP280;54626;45.436;10.942;2023-03-29T07:04:38;101421.34;;;10.11
67829;BMP280;54626;45.436;10.942;2023-03-29T07:07:09;101431.13;;;10.17
67829;BMP280;54626;45.436;10.942;2023-03-29T07:09:46;101438.09;;;10.29
67829;BMP280;54626;45.436;10.942;2023-03-29T07:12:20;101426.00;;;10.38
67829;BMP280;54626;45.436;10.942;2023-03-29T07:14:50;101434.19;;;10.54
67829;BMP280;54626;45.436;10.942;2023-03-29T07:17:17;101432.13;;;10.60
67829;BMP280;54626;45.436;10.942;2023-03-29T07:19:45;101442.56;;;10.78
67829;BMP280;54626;45.436;10.942;2023-03-29T07:22:14;101457.66;;;10.77
67829;BMP280;54626;45.436;10.942;2023-03-29T07:24:40;101463.78;;;10.99
67829;BMP280;54626;45.436;10.942;2023-03-29T07:27:08;101469.50;;;11.07
67829;BMP280;54626;45.436;10.942;2023-03-29T07:29:39;101465.09;;;11.22
67829;BMP280;54626;45.436;10.942;2023-03-29T07:32:05;101474.22;;;11.41
67829;BMP280;54626;45.436;10.942;2023-03-29T07:34:33;101470.78;;;11.59
67829;BMP280;54626;45.436;10.942;2023-03-29T07:37:00;101475.84;;;11.55
67829;BMP280;54626;45.436;10.942;2023-03-29T07:39:27;101481.16;;;11.53
67829;BMP280;54626;45.436;10.942;2023-03-29T07:41:56;101474.59;;;11.80
67829;BMP280;54626;45.436;10.942;2023-03-29T07:44:23;101466.41;;;11.87
67829;BMP280;54626;45.436;10.942;2023-03-29T07:46:49;101472.34;;;11.97
67829;BMP280;54626;45.436;10.942;2023-03-29T07:49:21;101465.53;;;11.98
67829;BMP280;54626;45.436;10.942;2023-03-29T07:51:48;101473.34;;;12.18
67829;BMP280;54626;45.436;10.942;2023-03-29T07:54:14;101466.53;;;12.18
67829;BMP280;54626;45.436;10.942;2023-03-29T07:56:42;101466.00;;;12.20
67829;BMP280;54626;45.436;10.942;2023-03-29T07:59:08;101472.66;;;12.12
67829;BMP280;54626;45.436;10.942;2023-03-29T08:01:35;101468.25;;;12.21
67829;BMP280;54626;45.436;10.942;2023-03-29T08:04:02;101469.91;;;12.12
67829;BMP280;54626;45.436;10.942;2023-03-29T08:06:30;101463.16;;;12.25
67829;BMP280;54626;45.436;10.942;2023-03-29T08:09:05;101460.38;;;12.25
67829;BMP280;54626;45.436;10.942;2023-03-29T08:11:33;101458.13;;;12.42
67829;BMP280;54626;45.436;10.942;2023-03-29T08:14:00;101444.59;;;12.52
67829;BMP280;54626;45.436;10.942;2023-03-29T08:16:26;101444.53;;;12.57
67829;BMP280;54626;45.436;10.942;2023-03-29T08:18:52;101446.88;;;12.53
67829;BMP280;54626;45.436;10.942;2023-03-29T08:21:19;101446.38;;;12.68
67829;BMP280;54626;45.436;10.942;2023-03-29T08:23:46;101445.38;;;12.84
67829;BMP280;54626;45.436;10.942;2023-03-29T08:26:13;101432.19;;;13.02
67829;BMP280;54626;45.436;10.942;2023-03-29T08:28:41;101437.84;;;13.23
67829;BMP280;54626;45.436;10.942;2023-03-29T08:31:08;101436.56;;;13.24
67829;BMP280;54626;45.436;10.942;2023-03-29T08:33:37;101442.03;;;13.16
67829;BMP280;54626;45.436;10.942;2023-03-29T08:36:04;101439.75;;;13.15
67829;BMP280;54626;45.436;10.942;2023-03-29T08:38:31;101442.97;;;13.06
67829;BMP280;54626;45.436;10.942;2023-03-29T08:41:16;101435.72;;;13.16
67829;BMP280;54626;45.436;10.942;2023-03-29T08:44:07;101440.63;;;13.23
67829;BMP280;54626;45.436;10.942;2023-03-29T08:46:43;101448.25;;;13.61
67829;BMP280;54626;45.436;10.942;2023-03-29T08:49:13;101453.25;;;13.75
67829;BMP280;54626;45.436;10.942;2023-03-29T08:51:50;101446.19;;;13.87
67829;BMP280;54626;45.436;10.942;2023-03-29T08:54:32;101437.28;;;14.02
67829;BMP280;54626;45.436;10.942;2023-03-29T08:57:18;101437.59;;;13.98
67829;BMP280;54626;45.436;10.942;2023-03-29T08:59:50;101441.56;;;14.03
67829;BMP280;54626;45.436;10.942;2023-03-29T09:02:22;101445.59;;;14.15
67829;BMP280;54626;45.436;10.942;2023-03-29T09:04:49;101433.22;;;14.23
67829;BMP280;54626;45.436;10.942;2023-03-29T09:07:21;101427.88;;;14.25
67829;BMP280;54626;45.436;10.942;2023-03-29T09:09:51;101435.34;;;14.30
67829;BMP280;54626;45.436;10.942;2023-03-29T09:13:16;101432.28;;;14.21
67829;BMP280;54626;45.436;10.942;2023-03-29T09:15:53;101431.63;;;14.48
67829;BMP280;54626;45.436;10.942;2023-03-29T09:18:42;101428.19;;;14.55
67829;BMP280;54626;45.436;10.942;2023-03-29T09:21:24;101430.00;;;14.93
67829;BMP280;54626;45.436;10.942;2023-03-29T09:26:45;101427.63;;;14.77
67829;BMP280;54626;45.436;10.942;2023-03-29T09:29:46;101421.72;;;14.80
67829;BMP280;54626;45.436;10.942;2023-03-29T09:32:20;101421.81;;;14.67
67829;BMP280;54626;45.436;10.942;2023-03-29T09:35:24;101420.19;;;14.99
67829;BMP280;54626;45.436;10.942;2023-03-29T09:37:54;101414.31;;;15.10
67829;BMP280;54626;45.436;10.942;2023-03-29T09:40:31;101423.44;;;15.11
67829;BMP280;54626;45.436;10.942;2023-03-29T09:43:02;101418.84;;;15.21
67829;BMP280;54626;45.436;10.942;2023-03-29T09:45:32;101421.25;;;15.24
67829;BMP280;54626;45.436;10.942;2023-03-29T09:48:13;101422.13;;;15.40
67829;BMP280;54626;45.436;10.942;2023-03-29T09:50:42;101417.06;;;15.66
67829;BMP280;54626;45.436;10.942;2023-03-29T09:53:09;101403.88;;;15.74
67829;BMP280;54626;45.436;10.942;2023-03-29T09:55:36;101406.28;;;15.70
67829;BMP280;54626;45.436;10.942;2023-03-29T09:58:16;101406.66;;;15.74
67829;BMP280;54626;45.436;10.942;2023-03-29T10:00:45;101402.66;;;16.05
67829;BMP280;54626;45.436;10.942;2023-03-29T10:03:18;101400.38;;;15.81
67829;BMP280;54626;45.436;10.942;2023-03-29T10:05:49;101402.53;;;15.67
67829;BMP280;54626;45.436;10.942;2023-03-29T10:08:29;101388.41;;;15.66
67829;BMP280;54626;45.436;10.942;2023-03-29T10:10:57;101383.63;;;15.81
67829;BMP280;54626;45.436;10.942;2023-03-29T10:13:31;101394.16;;;15.67
67829;BMP280;54626;45.436;10.942;2023-03-29T10:16:06;101382.88;;;15.80
67829;BMP280;54626;45.436;10.942;2023-03-29T10:18:39;101391.19;;;15.66
67829;BMP280;54626;45.436;10.942;2023-03-29T10:21:11;101385.16;;;15.97
67829;BMP280;54626;45.436;10.942;2023-03-29T10:23:38;101384.41;;;15.96
67829;BMP280;54626;45.436;10.942;2023-03-29T10:26:13;101369.59;;;16.24
67829;BMP280;54626;45.436;10.942;2023-03-29T10:28:42;101364.00;;;16.38
67829;BMP280;54626;45.436;10.942;2023-03-29T10:31:21;101364.19;;;16.33
67829;BMP280;54626;45.436;10.942;2023-03-29T10:34:12;101354.69;;;16.29
67829;BMP280;54626;45.436;10.942;2023-03-29T10:36:40;101348.34;;;16.43
67829;BMP280;54626;45.436;10.942;2023-03-29T10:39:12;101341.28;;;16.34
67829;BMP280;54626;45.436;10.942;2023-03-29T10:41:41;101347.59;;;16.57
67829;BMP280;54626;45.436;10.942;2023-03-29T10:44:25;101342.38;;;16.54
67829;BMP280;54626;45.436;10.942;2023-03-29T10:49:44;101333.78;;;16.67
67829;BMP280;54626;45.436;10.942;2023-03-29T10:52:14;101324.78;;;16.98
67829;BMP280;54626;45.436;10.942;2023-03-29T10:54:41;101329.19;;;17.16
67829;BMP280;54626;45.436;10.942;2023-03-29T10:57:12;101330.34;;;17.13
67829;BMP280;54626;45.436;10.942;2023-03-29T11:02:47;101329.50;;;17.27
67829;BMP280;54626;45.436;10.942;2023-03-29T11:11:15;101322.03;;;17.30
67829;BMP280;54626;45.436;10.942;2023-03-29T11:19:44;101319.81;;;17.92
67829;BMP280;54626;45.436;10.942;2023-03-29T11:25:21;101331.25;;;18.03
67829;BMP280;54626;45.436;10.942;2023-03-29T11:27:57;101303.03;;;17.92
67829;BMP280;54626;45.436;10.942;2023-03-29T11:30:49;101298.00;;;17.58
67829;BMP280;54626;45.436;10.942;2023-03-29T11:35:52;101300.25;;;16.89
67829;BMP280;54626;45.436;10.942;2023-03-29T11:38:32;101298.53;;;17.33
67829;BMP280;54626;45.436;10.942;2023-03-29T11:44:02;101301.88;;;17.63
67829;BMP280;54626;45.436;10.942;2023-03-29T11:46:40;101294.97;;;17.64
67829;BMP280;54626;45.436;10.942;2023-03-29T11:49:15;101302.16;;;17.82
67829;BMP280;54626;45.436;10.942;2023-03-29T11:51:47;101296.88;;;17.61
67829;BMP280;54626;45.436;10.942;2023-03-29T11:55:08;101304.59;;;17.78
67829;BMP280;54626;45.436;10.942;2023-03-29T12:00:14;101292.00;;;18.52
67829;BMP280;54626;45.436;10.942;2023-03-29T12:02:45;101292.41;;;18.48
67829;BMP280;54626;45.436;10.942;2023-03-29T12:05:19;101288.78;;;18.72
67829;BMP280;54626;45.436;10.942;2023-03-29T12:07:56;101289.00;;;18.67
67829;BMP280;54626;45.436;10.942;2023-03-29T12:10:35;101284.56;;;18.30
67829;BMP280;54626;45.436;10.942;2023-03-29T12:13:19;101279.72;;;18.64
67829;BMP280;54626;45.436;10.942;2023-03-29T12:15:55;101280.19;;;18.87
67829;BMP280;54626;45.436;10.942;2023-03-29T12:18:31;101269.84;;;18.46
67829;BMP280;54626;45.436;10.942;2023-03-29T12:21:01;101263.31;;;18.61
67829;BMP280;54626;45.436;10.942;2023-03-29T12:23:32;101269.66;;;19.04
67829;BMP280;54626;45.436;10.942;2023-03-29T12:32:07;101253.97;;;18.75
67829;BMP280;54626;45.436;10.942;2023-03-29T12:35:13;101253.06;;;19.16
67829;BMP280;54626;45.436;10.942;2023-03-29T12:38:26;101258.22;;;19.19
67829;BMP280;54626;45.436;10.942;2023-03-29T12:40:40;101259.94;;;19.32
67829;BMP280;54626;45.436;10.942;2023-03-29T12:43:24;101257.59;;;19.38
67829;BMP280;54626;45.436;10.942;2023-03-29T12:46:07;101266.22;;;19.23
67829;BMP280;54626;45.436;10.942;2023-03-29T12:48:36;101256.03;;;18.75
67829;BMP280;54626;45.436;10.942;2023-03-29T12:51:18;101245.81;;;18.70
67829;BMP280;54626;45.436;10.942;2023-03-29T12:53:52;101244.56;;;19.06
67829;BMP280;54626;45.436;10.942;2023-03-29T12:56:34;101249.34;;;18.87
67829;BMP280;54626;45.436;10.942;2023-03-29T12:59:25;101241.25;;;18.91
67829;BMP280;54626;45.436;10.942;2023-03-29T13:01:59;101241.25;;;19.17
67829;BMP280;54626;45.436;10.942;2023-03-29T13:04:54;101230.47;;;19.14
67829;BMP280;54626;45.436;10.942;2023-03-29T13:09:51;101236.22;;;18.46
67829;BMP280;54626;45.436;10.942;2023-03-29T13:12:43;101224.53;;;18.67
67829;BMP280;54626;45.436;10.942;2023-03-29T13:31:17;101208.06;;;19.78
67829;BMP280;54626;45.436;10.942;2023-03-29T13:34:00;101205.13;;;19.66
67829;BMP280;54626;45.436;10.942;2023-03-29T13:39:23;101199.84;;;19.89
67829;BMP280;54626;45.436;10.942;2023-03-29T13:42:06;101198.22;;;19.96
67829;BMP280;54626;45.436;10.942;2023-03-29T13:44:42;101198.78;;;19.75
67829;BMP280;54626;45.436;10.942;2023-03-29T13:50:02;101189.66;;;20.50
67829;BMP280;54626;45.436;10.942;2023-03-29T13:52:33;101195.00;;;20.46
67829;BMP280;54626;45.436;10.942;2023-03-29T13:55:21;101192.44;;;20.12
67829;BMP280;54626;45.436;10.942;2023-03-29T14:01:05;101185.97;;;20.38
67829;BMP280;54626;45.436;10.942;2023-03-29T14:03:40;101183.00;;;20.17
67829;BMP280;54626;45.436;10.942;2023-03-29T14:06:13;101176.75;;;20.56
67829;BMP280;54626;45.436;10.942;2023-03-29T14:08:47;101180.63;;;21.01
67829;BMP280;54626;45.436;10.942;2023-03-29T14:11:26;101182.50;;;20.68
67829;BMP280;54626;45.436;10.942;2023-03-29T14:14:00;101177.13;;;20.91
67829;BMP280;54626;45.436;10.942;2023-03-29T14:16:32;101168.59;;;21.10
67829;BMP280;54626;45.436;10.942;2023-03-29T14:19:10;101165.44;;;20.85
67829;BMP280;54626;45.436;10.942;2023-03-29T14:21:42;101174.25;;;20.32
67829;BMP280;54626;45.436;10.942;2023-03-29T14:24:11;101154.88;;;20.55
67829;BMP280;54626;45.436;10.942;2023-03-29T14:26:43;101162.41;;;20.62
67829;BMP280;54626;45.436;10.942;2023-03-29T14:29:09;101160.53;;;20.95
67829;BMP280;54626;45.436;10.942;2023-03-29T14:31:39;101156.31;;;20.65
67829;BMP280;54626;45.436;10.942;2023-03-29T14:34:11;101156.59;;;20.79
67829;BMP280;54626;45.436;10.942;2023-03-29T14:36:38;101153.78;;;20.79
67829;BMP280;54626;45.436;10.942;2023-03-29T14:39:17;101160.09;;;20.89
67829;BMP280;54626;45.436;10.942;2023-03-29T14:41:49;101165.03;;;20.79
67829;BMP280;54626;45.436;10.942;2023-03-29T14:44:16;101165.25;;;20.92
67829;BMP280;54626;45.436;10.942;2023-03-29T14:46:45;101162.81;;;21.08
67829;BMP280;54626;45.436;10.942;2023-03-29T14:49:16;101160.81;;;20.99
67829;BMP280;54626;45.436;10.942;2023-03-29T14:51:44;101159.81;;;20.85
67829;BMP280;54626;45.436;10.942;2023-03-29T14:54:24;101170.50;;;20.77
67829;BMP280;54626;45.436;10.942;2023-03-29T14:56:52;101174.59;;;20.85
67829;BMP280;54626;45.436;10.942;2023-03-29T15:01:57;101182.09;;;21.32
67829;BMP280;54626;45.436;10.942;2023-03-29T15:04:31;101175.50;;;21.48
67829;BMP280;54626;45.436;10.942;2023-03-29T15:06:58;101170.53;;;21.58
67829;BMP280;54626;45.436;10.942;2023-03-29T15:09:34;101163.59;;;21.29
67829;BMP280;54626;45.436;10.942;2023-03-29T15:12:01;101163.00;;;21.00
67829;BMP280;54626;45.436;10.942;2023-03-29T15:14:31;101153.88;;;21.20
67829;BMP280;54626;45.436;10.942;2023-03-29T15:19:50;101150.91;;;20.88
67829;BMP280;54626;45.436;10.942;2023-03-29T15:22:18;101151.09;;;20.81
67829;BMP280;54626;45.436;10.942;2023-03-29T15:24:47;101159.88;;;21.06
67829;BMP280;54626;45.436;10.942;2023-03-29T15:27:16;101152.66;;;21.03
67829;BMP280;54626;45.436;10.942;2023-03-29T15:29:46;101163.16;;;21.32
67829;BMP280;54626;45.436;10.942;2023-03-29T15:32:23;101167.00;;;21.07
67829;BMP280;54626;45.436;10.942;2023-03-29T15:35:04;101167.41;;;21.13